Detall de PIREP

Printer-friendly versionPDF version

[2010/02/02 08:44:00]
Flight IATA:CT2111
Pilot Number:041
Company ICAO:CAT
Aircraft Type:F50/A
PAX:30
Departing Airport: LEST
Destination Airport: LEVC
Alternate Airport:LEAL
Online: VATSIM
Route:FORNO1A A33 ZMR A33 DISKO A33 INDEG A33 MAGIN A33 HORTA A33 CJN A33 PRADO A33 CENTA1D
Flight Level:FL180
No Slew and time accel
No pause
Crash detect
Detect pilot in Cockpit between each 30 and 45 minutes
08:44 Zero fuel Weight: 35103 Lbs, Fuel Weight: 4920 Lbs
08:44 VATSIM:LEST 020830Z 11006KT CAVOK 03/M01 Q1022 NOSIG
08:44 VATSIM:LEVC 020830Z 28003KT CAVOK 04/M00 Q1026 NOSIG
08:44 VOICE CATALONIAN
08:44 Parking Brakes off
08:51 Take-off
08:51 Take off Weight: 39913 Lbs
08:51 Wind: 116º @ 005 Knots Heading: 164º
08:51 POS N42º 53´ 38´´ W008º 24´ 51´´
08:51 Gear Up: 137 Knots
08:51 Flaps:1 at 137 Knots
08:52 Flaps:0 at 155 Knots
09:05 TOC
09:05 Fuel Weight: 4305 Lb
09:
06 Wind:308º@015 Knots Heading: 122º Ground Speed: 231 Knots Altitude 18270 ft
09:21 Wind:313º@014 Knots Heading: 124º Ground Speed: 268 Knots Altitude 18267 ft
09:36 Wind:312º@021 Knots Heading: 114º Ground Speed: 277 Knots Altitude 18287 ft
09:51 Wind:301º@018 Knots Heading: 115º Ground Speed: 275 Knots Altitude 18326 ft
10:01 TOD
10:01 Fuel Weight: 2627 Lb
10:06 Wind:320º@016 Knots Heading: 117º Ground Speed: 256 Knots Altitude 13763 ft
10:21 Wind:109º@002 Knots Heading: 119º Ground Speed: 196 Knots Altitude 6000 ft
10:24 Flaps:1 at 171 Knots
10:25 Flaps:2 at 161 Knots
10:28 Flaps:3 at 146 Knots
10:28 Gear Down: 133 Knots
10:28 Flaps:4 at 113 Knots
10:30 Flaps:5 at 119 Knots
10:30 Flaps:6 at 111 Knots
10:34 TouchDown:Rate -183 ft/min Speed: 96 Knots
10:34 Flaps:0 at 86 Knots
10:34 VATSIM:LEVC 021000Z VRB02KT 9999 FEW040 08/00 Q1026 NOSIG
10:34 Land
10:34
Wind:049º@001 Knots
10:34 Heading: 116º
10:34 Flight Duration: 01:43
10:34 Landing Weight: 37100 Lbs
10:34 POS N39º 29´ 27´´ W000º 29´ 09´´
10:37 Parking brakes on
10:37 Block to Block Duration: 01:53
10:37 Final Fuel: 1968 Lbls
10:37 Spent Fuel: 2951 Lbls
10:37 Flight Length: 414 NM
10:37 TOD Land Length: 110 NM

Exportar CSV

Powered by Drupal - Modified by Danger4k